sensor_id;sensor_type;location;lat;lon;timestamp;temperature;humidity
26757;DHT22;23848;49.798;10.228;2024-02-23T01:20:24;8.20;99.90
26757;DHT22;23848;49.798;10.228;2024-02-23T01:23:39;8.20;99.90
26757;DHT22;23848;49.798;10.228;2024-02-23T01:27:16;8.10;99.90
26757;DHT22;23848;49.798;10.228;2024-02-23T01:34:22;8.10;99.90
26757;DHT22;23848;49.798;10.228;2024-02-23T01:37:21;8.10;99.90
26757;DHT22;23848;49.798;10.228;2024-02-23T01:40:55;8.00;99.90
26757;DHT22;23848;49.798;10.228;2024-02-23T01:44:14;8.00;99.90
26757;DHT22;23848;49.798;10.228;2024-02-23T01:47:09;7.90;99.90
26757;DHT22;23848;49.798;10.228;2024-02-23T01:50:09;7.90;99.90
26757;DHT22;23848;49.798;10.228;2024-02-23T01:53:18;7.90;99.90
26757;DHT22;23848;49.798;10.228;2024-02-23T01:56:00;7.80;99.90
26757;DHT22;23848;49.798;10.228;2024-02-23T01:59:25;7.80;99.90
26757;DHT22;23848;49.798;10.228;2024-02-23T02:02:21;7.80;99.90
26757;DHT22;23848;49.798;10.228;2024-02-23T02:05:35;7.70;99.90
26757;DHT22;23848;49.798;10.228;2024-02-23T02:09:07;7.70;99.90
26757;DHT22;23848;49.798;10.228;2024-02-23T02:12:49;7.70;99.90
26757;DHT22;23848;49.798;10.228;2024-02-23T02:16:02;7.60;99.90
26757;DHT22;23848;49.798;10.228;2024-02-23T02:30:06;7.50;99.90
26757;DHT22;23848;49.798;10.228;2024-02-23T02:37:16;7.40;99.90
26757;DHT22;23848;49.798;10.228;2024-02-23T03:18:35;7.00;99.90
26757;DHT22;23848;49.798;10.228;2024-02-23T03:40:47;7.00;99.90
26757;DHT22;23848;49.798;10.228;2024-02-23T03:44:21;6.90;99.90
26757;DHT22;23848;49.798;10.228;2024-02-23T03:59:46;6.20;99.90
26757;DHT22;23848;49.798;10.228;2024-02-23T04:07:27;6.10;99.90
26757;DHT22;23848;49.798;10.228;2024-02-23T04:10:51;6.10;99.90
26757;DHT22;23848;49.798;10.228;2024-02-23T04:25:42;5.90;99.90
26757;DHT22;23848;49.798;10.228;2024-02-23T04:29:10;5.90;99.90
26757;DHT22;23848;49.798;10.228;2024-02-23T04:36:48;5.70;99.90
26757;DHT22;23848;49.798;10.228;2024-02-23T04:43:24;5.80;99.90
26757;DHT22;23848;49.798;10.228;2024-02-23T04:46:48;5.80;99.90
26757;DHT22;23848;49.798;10.228;2024-02-23T04:54:09;5.80;99.90
26757;DHT22;23848;49.798;10.228;2024-02-23T04:57:53;5.80;99.90
26757;DHT22;23848;49.798;10.228;2024-02-23T05:01:42;5.70;99.90
26757;DHT22;23848;49.798;10.228;2024-02-23T05:05:30;5.70;99.90
26757;DHT22;23848;49.798;10.228;2024-02-23T05:08:36;5.80;99.90
26757;DHT22;23848;49.798;10.228;2024-02-23T05:11:47;5.80;99.90
26757;DHT22;23848;49.798;10.228;2024-02-23T05:15:35;5.80;99.90
26757;DHT22;23848;49.798;10.228;2024-02-23T05:18:39;5.80;99.90
26757;DHT22;23848;49.798;10.228;2024-02-23T05:22:18;5.80;99.90
26757;DHT22;23848;49.798;10.228;2024-02-23T05:27:35;5.80;99.90
26757;DHT22;23848;49.798;10.228;2024-02-23T05:29:26;5.80;99.90
26757;DHT22;23848;49.798;10.228;2024-02-23T05:32:22;5.80;99.90
26757;DHT22;23848;49.798;10.228;2024-02-23T05:35:52;5.80;99.90
26757;DHT22;23848;49.798;10.228;2024-02-23T05:39:45;5.80;99.90
26757;DHT22;23848;49.798;10.228;2024-02-23T05:43:18;5.80;99.90
26757;DHT22;23848;49.798;10.228;2024-02-23T05:46:42;5.80;99.90
26757;DHT22;23848;49.798;10.228;2024-02-23T05:50:10;5.80;99.90
26757;DHT22;23848;49.798;10.228;2024-02-23T06:04:28;5.90;99.90
26757;DHT22;23848;49.798;10.228;2024-02-23T06:07:52;5.90;99.90
26757;DHT22;23848;49.798;10.228;2024-02-23T06:10:34;5.80;99.90
26757;DHT22;23848;49.798;10.228;2024-02-23T06:17:01;5.60;99.90
26757;DHT22;23848;49.798;10.228;2024-02-23T06:20:16;5.50;99.90
26757;DHT22;23848;49.798;10.228;2024-02-23T06:23:08;5.50;99.90
26757;DHT22;23848;49.798;10.228;2024-02-23T06:29:14;5.30;99.90
26757;DHT22;23848;49.798;10.228;2024-02-23T06:32:31;5.30;99.90
26757;DHT22;23848;49.798;10.228;2024-02-23T06:39:02;5.20;99.90
26757;DHT22;23848;49.798;10.228;2024-02-23T06:43:54;5.30;99.90
26757;DHT22;23848;49.798;10.228;2024-02-23T06:46:33;5.30;99.90
26757;DHT22;23848;49.798;10.228;2024-02-23T06:50:25;5.30;99.90
26757;DHT22;23848;49.798;10.228;2024-02-23T06:53:52;5.40;99.90
26757;DHT22;23848;49.798;10.228;2024-02-23T06:57:22;5.40;99.90
26757;DHT22;23848;49.798;10.228;2024-02-23T07:04:07;5.40;99.90
26757;DHT22;23848;49.798;10.228;2024-02-23T07:07:43;5.40;99.90
26757;DHT22;23848;49.798;10.228;2024-02-23T07:11:06;5.50;99.90
26757;DHT22;23848;49.798;10.228;2024-02-23T07:14:36;5.40;99.90
26757;DHT22;23848;49.798;10.228;2024-02-23T07:18:01;5.50;99.90
26757;DHT22;23848;49.798;10.228;2024-02-23T07:21:34;5.50;99.90
26757;DHT22;23848;49.798;10.228;2024-02-23T07:24:46;5.50;99.90
26757;DHT22;23848;49.798;10.228;2024-02-23T07:27:47;5.50;99.90
26757;DHT22;23848;49.798;10.228;2024-02-23T07:34:08;5.60;99.90
26757;DHT22;23848;49.798;10.228;2024-02-23T07:37:16;5.50;99.90
26757;DHT22;23848;49.798;10.228;2024-02-23T07:40:49;5.60;99.90
26757;DHT22;23848;49.798;10.228;2024-02-23T07:44:12;5.60;99.90
26757;DHT22;23848;49.798;10.228;2024-02-23T07:58:30;5.70;99.90
26757;DHT22;23848;49.798;10.228;2024-02-23T10:03:43;7.20;99.90
26757;DHT22;23848;49.798;10.228;2024-02-23T10:58:48;7.70;99.90
26757;DHT22;23848;49.798;10.228;2024-02-23T11:17:49;7.70;99.90
26757;DHT22;23848;49.798;10.228;2024-02-23T11:24:52;7.80;99.90
26757;DHT22;23848;49.798;10.228;2024-02-23T11:27:54;7.80;99.90
26757;DHT22;23848;49.798;10.228;2024-02-23T11:31:47;7.90;99.90
26757;DHT22;23848;49.798;10.228;2024-02-23T11:49:23;7.90;99.90
26757;DHT22;23848;49.798;10.228;2024-02-23T11:53:26;8.00;99.90
26757;DHT22;23848;49.798;10.228;2024-02-23T12:03:02;8.00;99.90
26757;DHT22;23848;49.798;10.228;2024-02-23T12:05:57;8.10;99.90
26757;DHT22;23848;49.798;10.228;2024-02-23T12:09:32;8.10;99.90
26757;DHT22;23848;49.798;10.228;2024-02-23T12:12:40;8.10;99.90
26757;DHT22;23848;49.798;10.228;2024-02-23T12:20:07;8.00;99.90
26757;DHT22;23848;49.798;10.228;2024-02-23T12:23:24;8.00;99.90
26757;DHT22;23848;49.798;10.228;2024-02-23T12:26:39;7.90;99.90
26757;DHT22;23848;49.798;10.228;2024-02-23T12:30:12;8.00;99.90
26757;DHT22;23848;49.798;10.228;2024-02-23T12:33:25;7.90;99.90
26757;DHT22;23848;49.798;10.228;2024-02-23T12:40:31;7.90;99.90
26757;DHT22;23848;49.798;10.228;2024-02-23T12:47:38;8.00;99.90
26757;DHT22;23848;49.798;10.228;2024-02-23T12:50:23;8.10;99.90
26757;DHT22;23848;49.798;10.228;2024-02-23T12:53:35;8.20;99.90
26757;DHT22;23848;49.798;10.228;2024-02-23T13:03:47;8.30;99.90
26757;DHT22;23848;49.798;10.228;2024-02-23T13:07:41;8.30;99.90
26757;DHT22;23848;49.798;10.228;2024-02-23T13:14:52;8.40;99.90
26757;DHT22;23848;49.798;10.228;2024-02-23T13:17:55;8.40;99.90
26757;DHT22;23848;49.798;10.228;2024-02-23T15:39:27;8.90;99.90
26757;DHT22;23848;49.798;10.228;2024-02-23T19:44:05;5.10;99.90
26757;DHT22;23848;49.798;10.228;2024-02-23T19:46:33;5.10;99.90
26757;DHT22;23848;49.798;10.228;2024-02-23T19:49:01;5.00;99.90
26757;DHT22;23848;49.798;10.228;2024-02-23T19:51:29;5.00;99.90
26757;DHT22;23848;49.798;10.228;2024-02-23T19:56:26;5.00;99.90
26757;DHT22;23848;49.798;10.228;2024-02-23T19:58:55;4.90;99.90
26757;DHT22;23848;49.798;10.228;2024-02-23T20:01:26;4.70;99.90
26757;DHT22;23848;49.798;10.228;2024-02-23T20:03:54;4.70;99.90
26757;DHT22;23848;49.798;10.228;2024-02-23T20:06:25;4.50;99.90
26757;DHT22;23848;49.798;10.228;2024-02-23T20:08:57;4.40;99.90
26757;DHT22;23848;49.798;10.228;2024-02-23T20:11:25;4.40;99.90
26757;DHT22;23848;49.798;10.228;2024-02-23T20:13:53;4.30;99.90
26757;DHT22;23848;49.798;10.228;2024-02-23T20:16:23;4.20;99.90
26757;DHT22;23848;49.798;10.228;2024-02-23T20:18:52;4.20;99.90
26757;DHT22;23848;49.798;10.228;2024-02-23T20:21:20;4.20;99.90
26757;DHT22;23848;49.798;10.228;2024-02-23T20:23:49;4.10;99.90
26757;DHT22;23848;49.798;10.228;2024-02-23T20:26:17;4.10;99.90
26757;DHT22;23848;49.798;10.228;2024-02-23T20:28:45;4.00;99.90
26757;DHT22;23848;49.798;10.228;2024-02-23T20:31:13;4.00;99.90
26757;DHT22;23848;49.798;10.228;2024-02-23T20:33:41;4.00;99.90
26757;DHT22;23848;49.798;10.228;2024-02-23T20:36:12;3.90;99.90
26757;DHT22;23848;49.798;10.228;2024-02-23T20:38:45;3.90;99.90
26757;DHT22;23848;49.798;10.228;2024-02-23T20:41:16;3.80;99.90
26757;DHT22;23848;49.798;10.228;2024-02-23T20:43:45;3.80;99.90
26757;DHT22;23848;49.798;10.228;2024-02-23T20:46:13;3.70;99.90
26757;DHT22;23848;49.798;10.228;2024-02-23T20:48:41;3.60;99.90
26757;DHT22;23848;49.798;10.228;2024-02-23T20:51:09;3.60;99.90
26757;DHT22;23848;49.798;10.228;2024-02-23T20:53:42;3.50;99.90
26757;DHT22;23848;49.798;10.228;2024-02-23T20:56:10;3.50;99.90
26757;DHT22;23848;49.798;10.228;2024-02-23T20:58:38;3.50;99.90
26757;DHT22;23848;49.798;10.228;2024-02-23T21:01:06;3.50;99.90
26757;DHT22;23848;49.798;10.228;2024-02-23T21:03:36;3.50;99.90
26757;DHT22;23848;49.798;10.228;2024-02-23T21:06:05;3.50;99.90
26757;DHT22;23848;49.798;10.228;2024-02-23T21:13:35;3.50;99.90
26757;DHT22;23848;49.798;10.228;2024-02-23T21:16:04;3.40;99.90
26757;DHT22;23848;49.798;10.228;2024-02-23T21:18:32;3.30;99.90
26757;DHT22;23848;49.798;10.228;2024-02-23T21:23:32;3.20;99.90
26757;DHT22;23848;49.798;10.228;2024-02-23T21:26:01;3.10;99.90
26757;DHT22;23848;49.798;10.228;2024-02-23T21:30:59;3.30;99.90
26757;DHT22;23848;49.798;10.228;2024-02-23T21:33:30;3.10;99.90
26757;DHT22;23848;49.798;10.228;2024-02-23T21:35:58;3.10;99.90
26757;DHT22;23848;49.798;10.228;2024-02-23T21:38:27;3.10;99.90
26757;DHT22;23848;49.798;10.228;2024-02-23T21:40:55;3.10;99.90
26757;DHT22;23848;49.798;10.228;2024-02-23T21:43:23;3.00;99.90
26757;DHT22;23848;49.798;10.228;2024-02-23T21:45:52;3.00;99.90
26757;DHT22;23848;49.798;10.228;2024-02-23T21:48:20;2.90;99.90
26757;DHT22;23848;49.798;10.228;2024-02-23T21:50:48;2.90;99.90
26757;DHT22;23848;49.798;10.228;2024-02-23T21:53:16;2.90;99.90
26757;DHT22;23848;49.798;10.228;2024-02-23T21:55:45;2.90;99.90
26757;DHT22;23848;49.798;10.228;2024-02-23T21:58:13;2.80;99.90
26757;DHT22;23848;49.798;10.228;2024-02-23T22:00:41;2.80;99.90
26757;DHT22;23848;49.798;10.228;2024-02-23T22:03:10;2.80;99.90
26757;DHT22;23848;49.798;10.228;2024-02-23T22:05:38;2.70;99.90
26757;DHT22;23848;49.798;10.228;2024-02-23T22:13:04;2.80;99.90
26757;DHT22;23848;49.798;10.228;2024-02-23T22:15:33;2.70;99.90
26757;DHT22;23848;49.798;10.228;2024-02-23T22:18:02;2.60;99.90
26757;DHT22;23848;49.798;10.228;2024-02-23T22:23:00;2.70;99.90
26757;DHT22;23848;49.798;10.228;2024-02-23T22:25:29;2.60;99.90
26757;DHT22;23848;49.798;10.228;2024-02-23T22:27:57;2.50;99.90
26757;DHT22;23848;49.798;10.228;2024-02-23T22:30:25;2.50;99.90
26757;DHT22;23848;49.798;10.228;2024-02-23T22:32:53;2.40;99.90
26757;DHT22;23848;49.798;10.228;2024-02-23T22:35:22;2.30;99.90
26757;DHT22;23848;49.798;10.228;2024-02-23T22:37:52;2.30;99.90
26757;DHT22;23848;49.798;10.228;2024-02-23T22:40:20;2.30;99.90
26757;DHT22;23848;49.798;10.228;2024-02-23T22:42:50;2.20;99.90
26757;DHT22;23848;49.798;10.228;2024-02-23T23:02:42;2.40;99.90
26757;DHT22;23848;49.798;10.228;2024-02-23T23:05:10;2.40;99.90
26757;DHT22;23848;49.798;10.228;2024-02-23T23:07:40;2.10;99.90
26757;DHT22;23848;49.798;10.228;2024-02-23T23:10:09;2.00;99.90
26757;DHT22;23848;49.798;10.228;2024-02-23T23:12:39;1.90;99.90
26757;DHT22;23848;49.798;10.228;2024-02-23T23:15:07;1.90;99.90
26757;DHT22;23848;49.798;10.228;2024-02-23T23:20:07;1.80;99.90
26757;DHT22;23848;49.798;10.228;2024-02-23T23:22:36;1.80;99.90
26757;DHT22;23848;49.798;10.228;2024-02-23T23:25:04;1.80;99.90
26757;DHT22;23848;49.798;10.228;2024-02-23T23:27:32;1.80;99.90
26757;DHT22;23848;49.798;10.228;2024-02-23T23:30:02;1.70;99.90
26757;DHT22;23848;49.798;10.228;2024-02-23T23:32:30;1.70;99.90
26757;DHT22;23848;49.798;10.228;2024-02-23T23:34:59;1.70;99.90
26757;DHT22;23848;49.798;10.228;2024-02-23T23:37:26;1.70;99.90
26757;DHT22;23848;49.798;10.228;2024-02-23T23:39:55;1.60;99.90
26757;DHT22;23848;49.798;10.228;2024-02-23T23:42:23;1.60;99.90
26757;DHT22;23848;49.798;10.228;2024-02-23T23:44:51;1.60;99.90
26757;DHT22;23848;49.798;10.228;2024-02-23T23:52:17;1.70;99.90
26757;DHT22;23848;49.798;10.228;2024-02-23T23:57:13;1.80;99.90
